METAR Data
IDs: Format: Raw Decoded Include TAF

Data at: 0134 UTC 24 Sep 2018

KJXN 240056Z 08007KT 10SM CLR 16/10 A3020 RMK AO2 SLP227 T01560100
KJXN 232356Z 08005KT 10SM CLR 17/09 A3017 RMK AO2 SLP220 T01670094 10228 20167 53006
KJXN 232256Z 08006KT 10SM CLR 21/09 A3017 RMK AO2 SLP216 T02060089
KJXN 232156Z 07007KT 10SM CLR 22/08 A3016 RMK AO2 SLP213 T02170083
KJXN 232056Z 10008KT 10SM CLR 22/08 A3016 RMK AO2 SLP212 T02220083 56014
KJXN 231956Z 07005KT 10SM CLR 22/08 A3016 RMK AO2 SLP214 T02170083
KJXN 231856Z VRB06KT 10SM CLR 21/09 A3018 RMK AO2 SLP220 T02110089
KJXN 231756Z VRB06KT 10SM CLR 21/09 A3020 RMK AO2 SLP226 T02060089 10211 20056 58015
KJXN 231656Z VRB05KT 10SM CLR 19/09 A3022 RMK AO2 SLP234 T01940089
KJXN 231556Z VRB03KT 10SM CLR 17/09 A3023 RMK AO2 SLP240 T01720094
KJXN 231456Z 03008KT 10SM CLR 16/10 A3024 RMK AO2 SLP242 T01610100 50007
KJXN 231356Z 05005KT 10SM CLR 13/09 A3025 RMK AO2 SLP245 T01280089
KJXN 231256Z 04003KT 10SM CLR 09/08 A3023 RMK AO2 SLP242 T00940083
KJXN 231156Z 00000KT 6SM BR CLR 06/06 A3022 RMK AO2 SLP238 T00560056 10072 20044 51005
KJXN 231056Z 00000KT 9SM CLR 05/04 A3022 RMK AO2 SLP237 T00500044
KJXN 231010Z 00000KT 3SM BR CLR 06/06 A3022 RMK AO2 T00560056
KJXN 231005Z 00000KT 1 1/4SM BR CLR 06/06 A3022 RMK AO2 T00560056
KJXN 230956Z 00000KT 2 1/2SM BR CLR 06/05 A3021 RMK AO2 SLP233 T00560050
KJXN 230951Z 00000KT 3SM BR CLR 05/04 A3021 RMK AO2
KJXN 230941Z 00000KT 1 3/4SM BR CLR 05/04 A3021 RMK AO2 T00500044
KJXN 230856Z 00000KT 10SM CLR 07/06 A3021 RMK AO2 SLP231 T00670056 55004
KJXN 230756Z 00000KT 7SM CLR 06/06 A3020 RMK AO2 SLP228 T00610056
KJXN 230713Z 00000KT 4SM BR CLR 07/06 A3021 RMK AO2 T00670056
KJXN 230704Z 00000KT 2SM BR CLR 06/06 A3021 RMK AO2 T00610061
KJXN 230656Z 00000KT 3/4SM BR CLR 06/06 A3021 RMK AO2 SLP233 T00610061
KJXN 230650Z 00000KT 1 1/2SM BR CLR 06/06 A3021 RMK AO2
KJXN 230647Z 00000KT 4SM BR CLR 07/06 A3021 RMK AO2 T00670061
KJXN 230637Z 00000KT 2SM BR CLR 07/06 A3022 RMK AO2 T00720061
KJXN 230556Z 00000KT 5SM BR CLR 07/06 A3022 RMK AO2 SLP235 T00670061 10133 20067 58004
KJXN 230456Z 00000KT 10SM CLR 08/07 A3023 RMK AO2 SLP238 T00780072 401670072
KJXN 230356Z 00000KT 10SM CLR 08/07 A3023 RMK AO2 SLP241 T00780072
KJXN 230256Z 00000KT 10SM CLR 09/08 A3023 RMK AO2 SLP241 T00890078 58002
KJXN 230156Z 00000KT 10SM CLR 09/08 A3024 RMK AO2 SLP246 T00890083
KJXN 230056Z 00000KT 10SM CLR 10/09 A3024 RMK AO2 SLP243 T01000089
KJXN 222356Z 00000KT 10SM CLR 13/07 A3024 RMK AO2 SLP242 T01330072 10167 20133 56005
KJXN 222256Z 07003KT 10SM CLR 16/07 A3024 RMK AO2 SLP241 T01560072
KJXN 222156Z 09005KT 10SM SCT037 16/07 A3025 RMK AO2 SLP244 T01610072
KJXN 222056Z 06005KT 10SM SCT037 16/07 A3025 RMK AO2 SLP245 T01610072 58019
KJXN 221956Z 09003KT 10SM SCT034 16/07 A3027 RMK AO2 SLP252 T01560072
KJXN 221856Z VRB04KT 10SM BKN032 16/08 A3029 RMK AO2 SLP258 T01610078
KJXN 221756Z 08006KT 10SM SCT026 15/08 A3031 RMK AO2 SLP264 T01500078 10156 20094 58010
KJXN 221656Z 05005KT 10SM SCT026 14/07 A3033 RMK AO2 SLP270 T01440072
KJXN 221556Z VRB05KT 10SM FEW023 13/07 A3034 RMK AO2 SLP275 T01330072
KJXN 221456Z VRB04KT 10SM CLR 12/07 A3034 RMK AO2 SLP275 T01220067 51008
KJXN 221405Z 03007KT 10SM SCT023 11/06 A3034 RMK AO2 T01110061
KJXN 221356Z 01007KT 10SM BKN023 11/06 A3033 RMK AO2 SLP273 T01110061
KJXN 221337Z 02007KT 10SM BKN024 11/06 A3034 RMK AO2 T01060061